createdAt,value
2022-08-17T00:01:51.954Z,51.21
2022-08-17T00:04:19.877Z,51.68
2022-08-17T00:06:49.142Z,52.03
2022-08-17T00:09:18.786Z,51.57
2022-08-17T00:12:41.741Z,51.25
2022-08-17T00:14:36.044Z,50.40
2022-08-17T00:17:04.764Z,50.32
2022-08-17T00:19:32.861Z,49.67
2022-08-17T00:22:31.451Z,49.62
2022-08-17T00:24:50.330Z,48.87
2022-08-17T00:27:17.515Z,48.76
2022-08-17T00:29:45.964Z,48.84
2022-08-17T00:33:14.210Z,48.30
2022-08-17T00:35:05.461Z,48.53
2022-08-17T00:37:32.201Z,48.40
2022-08-17T00:39:59.007Z,47.90
2022-08-17T00:42:30.457Z,48.21
2022-08-17T00:44:58.414Z,48.17
2022-08-17T00:47:25.373Z,47.96
2022-08-17T00:49:52.386Z,47.74
2022-08-17T00:52:23.074Z,48.00
2022-08-17T00:54:52.376Z,47.62
2022-08-17T00:57:23.443Z,47.75
2022-08-17T01:00:02.231Z,47.73
2022-08-17T01:02:42.196Z,47.76
2022-08-17T01:05:14.251Z,47.75
2022-08-17T01:07:41.930Z,48.53
2022-08-17T01:10:58.157Z,48.86
2022-08-17T01:12:58.322Z,49.13
2022-08-17T01:15:25.425Z,48.86
2022-08-17T01:17:52.194Z,48.88
2022-08-17T01:20:19.101Z,49.41
2022-08-17T01:22:45.893Z,48.97
2022-08-17T01:25:12.894Z,49.28
2022-08-17T01:27:39.796Z,49.10
2022-08-17T01:30:56.850Z,50.18
2022-08-17T01:32:56.586Z,50.38
2022-08-17T01:35:23.303Z,50.74
2022-08-17T01:37:50.414Z,50.49
2022-08-17T01:40:23.871Z,50.72
2022-08-17T01:43:10.766Z,51.18
2022-08-17T01:45:43.206Z,51.54
2022-08-17T01:48:10.795Z,51.74
2022-08-17T01:50:38.061Z,52.03
2022-08-17T01:53:08.518Z,51.86
2022-08-17T01:55:43.140Z,52.06
2022-08-17T01:58:10.074Z,52.46
2022-08-17T02:01:00.140Z,53.54
2022-08-17T02:03:25.539Z,53.61
2022-08-17T02:05:53.246Z,53.52
2022-08-17T02:08:21.309Z,53.61
2022-08-17T02:11:11.711Z,53.28
2022-08-17T02:13:39.205Z,53.58
2022-08-17T02:16:05.996Z,53.26
2022-08-17T02:18:32.853Z,54.01
2022-08-17T02:20:59.997Z,54.29
2022-08-17T02:23:33.948Z,54.35
2022-08-17T02:26:02.318Z,54.53
2022-08-17T02:28:29.384Z,54.15
2022-08-17T02:31:00.666Z,53.89
2022-08-17T02:33:43.285Z,53.85
2022-08-17T02:36:12.154Z,53.94
2022-08-17T02:38:39.972Z,54.13
2022-08-17T02:41:06.865Z,53.79
2022-08-17T02:43:33.677Z,54.14
2022-08-17T02:46:00.460Z,53.85
2022-08-17T02:48:30.813Z,54.10
2022-08-17T02:50:59.047Z,54.33
2022-08-17T02:53:26.143Z,54.43
2022-08-17T02:55:53.112Z,54.31
2022-08-17T02:58:29.608Z,54.65
2022-08-17T03:01:05.031Z,54.45
2022-08-17T03:03:32.299Z,54.84
2022-08-17T03:05:59.060Z,55.17
2022-08-17T03:08:25.866Z,55.12
2022-08-17T03:10:52.967Z,54.92
2022-08-17T03:13:20.073Z,55.26
2022-08-17T03:15:48.320Z,55.19
2022-08-17T03:18:24.965Z,54.80
2022-08-17T03:20:54.612Z,55.12
2022-08-17T03:23:24.001Z,55.19
2022-08-17T03:25:53.205Z,55.20
2022-08-17T03:28:21.671Z,54.94
2022-08-17T03:30:48.824Z,55.13
2022-08-17T03:33:16.227Z,55.17
2022-08-17T03:35:43.535Z,55.38
2022-08-17T03:38:11.407Z,55.30
2022-08-17T03:40:56.853Z,55.35
2022-08-17T03:43:27.635Z,55.24
2022-08-17T03:46:28.293Z,55.34
2022-08-17T03:49:18.614Z,55.69
2022-08-17T03:52:03.872Z,55.90
2022-08-17T03:54:49.363Z,55.59
2022-08-17T03:57:16.628Z,55.99
2022-08-17T03:59:45.102Z,56.00
2022-08-17T04:02:17.895Z,55.70
2022-08-17T04:04:44.751Z,55.78
2022-08-17T04:07:11.591Z,55.89
2022-08-17T04:09:38.330Z,56.17
2022-08-17T04:12:05.720Z,55.85
2022-08-17T04:14:49.491Z,55.90
2022-08-17T04:17:19.925Z,55.69
2022-08-17T04:19:46.894Z,56.07
2022-08-17T04:22:32.479Z,56.25
2022-08-17T04:25:16.165Z,56.39
2022-08-17T04:27:42.903Z,56.36
2022-08-17T04:30:10.467Z,56.33
2022-08-17T04:33:11.006Z,56.03
2022-08-17T04:35:41.161Z,56.02
2022-08-17T04:38:09.218Z,56.19
2022-08-17T04:40:54.962Z,56.06
2022-08-17T04:43:23.794Z,56.29
2022-08-17T04:45:59.101Z,56.40
2022-08-17T04:48:36.410Z,56.09
2022-08-17T04:51:09.725Z,56.00
2022-08-17T04:53:37.701Z,56.10
2022-08-17T04:56:04.862Z,56.19
2022-08-17T04:58:31.635Z,56.26
2022-08-17T05:00:58.407Z,56.74
2022-08-17T05:03:25.359Z,56.85
2022-08-17T05:05:52.067Z,56.77
2022-08-17T05:08:20.052Z,56.23
2022-08-17T05:10:47.717Z,56.28
2022-08-17T05:13:18.044Z,56.26
2022-08-17T05:15:45.378Z,56.53
2022-08-17T05:18:16.040Z,56.06
2022-08-17T05:20:43.064Z,56.44
2022-08-17T05:23:12.631Z,56.17
2022-08-17T05:25:48.246Z,56.59
2022-08-17T05:28:18.669Z,56.38
2022-08-17T05:30:50.490Z,56.79
2022-08-17T05:33:21.066Z,56.82
2022-08-17T05:35:50.221Z,56.89
2022-08-17T05:38:19.377Z,57.13
2022-08-17T05:40:46.871Z,57.61
2022-08-17T05:43:17.212Z,57.26
2022-08-17T05:45:55.703Z,57.04
2022-08-17T05:48:39.611Z,56.65
2022-08-17T05:51:19.303Z,56.79
2022-08-17T05:53:46.053Z,56.94
2022-08-17T05:56:30.069Z,57.35
2022-08-17T05:59:34.313Z,57.23
2022-08-17T06:02:19.795Z,57.25
2022-08-17T06:05:27.735Z,57.79
2022-08-17T06:07:57.038Z,57.78
2022-08-17T06:10:43.923Z,58.07
2022-08-17T06:13:22.547Z,58.32
2022-08-17T06:16:04.415Z,58.13
2022-08-17T06:18:59.942Z,57.70
2022-08-17T06:21:32.117Z,57.78
2022-08-17T06:24:07.498Z,57.53
2022-08-17T06:26:42.998Z,57.30
2022-08-17T06:29:22.384Z,56.89
2022-08-17T06:31:50.117Z,56.95
2022-08-17T06:34:16.868Z,57.07
2022-08-17T06:37:31.701Z,57.00
2022-08-17T06:40:22.176Z,57.21
2022-08-17T06:43:06.112Z,56.91
2022-08-17T06:45:40.406Z,57.19
2022-08-17T06:48:24.418Z,56.66
2022-08-17T06:51:04.957Z,56.61
2022-08-17T06:53:45.586Z,56.49
2022-08-17T06:56:17.721Z,56.21
2022-08-17T06:58:45.276Z,56.27
2022-08-17T07:01:21.561Z,56.24
2022-08-17T07:03:54.795Z,56.09
2022-08-17T07:06:43.722Z,56.16
2022-08-17T07:09:14.950Z,56.21
2022-08-17T07:11:47.417Z,56.20
2022-08-17T07:14:29.531Z,56.05
2022-08-17T07:16:58.561Z,56.46
2022-08-17T07:19:32.705Z,56.10
2022-08-17T07:22:25.181Z,55.70
2022-08-17T07:25:09.750Z,55.46
2022-08-17T07:27:42.054Z,55.74
2022-08-17T07:30:12.430Z,55.01
2022-08-17T07:32:46.523Z,55.43
2022-08-17T07:35:44.362Z,55.25
2022-08-17T07:38:26.926Z,54.83
2022-08-17T07:41:03.495Z,54.10
2022-08-17T07:43:33.078Z,53.60
2022-08-17T07:46:19.926Z,53.66
2022-08-17T07:48:50.330Z,53.39
2022-08-17T07:51:32.389Z,52.82
2022-08-17T07:54:14.110Z,51.67
2022-08-17T07:56:44.748Z,51.78
2022-08-17T07:59:16.992Z,51.49
2022-08-17T08:02:17.199Z,51.71
2022-08-17T08:05:03.587Z,51.20
2022-08-17T08:07:43.551Z,51.14
2022-08-17T08:10:27.944Z,50.19
2022-08-17T08:13:08.577Z,49.54
2022-08-17T08:15:53.578Z,49.15
2022-08-17T08:18:53.754Z,49.23
2022-08-17T08:21:18.611Z,49.45
2022-08-17T08:23:53.268Z,49.43
2022-08-17T08:26:26.471Z,49.77
2022-08-17T08:29:29.374Z,49.26
2022-08-17T08:32:27.154Z,48.88
2022-08-17T08:35:06.863Z,49.40
2022-08-17T08:37:52.159Z,48.88
2022-08-17T08:40:31.001Z,49.26
2022-08-17T08:43:16.628Z,48.82
2022-08-17T08:46:10.120Z,48.77
2022-08-17T08:48:57.061Z,49.57
2022-08-17T08:51:56.748Z,49.59
2022-08-17T08:54:44.319Z,49.60
2022-08-17T08:57:26.710Z,49.91
2022-08-17T08:59:57.806Z,50.20
2022-08-17T09:02:24.858Z,50.64
2022-08-17T09:05:15.357Z,50.36
2022-08-17T09:08:16.289Z,50.56
2022-08-17T09:10:52.167Z,50.36
2022-08-17T09:13:43.374Z,50.22
2022-08-17T09:16:17.457Z,50.00
2022-08-17T09:19:01.796Z,50.00
2022-08-17T09:21:38.227Z,49.58
2022-08-17T09:24:24.223Z,49.22
2022-08-17T09:27:01.094Z,49.46
2022-08-17T09:29:35.201Z,49.26
2022-08-17T09:32:20.235Z,49.10
2022-08-17T09:34:53.603Z,48.72
2022-08-17T09:37:37.940Z,48.30
2022-08-17T09:40:16.444Z,48.48
2022-08-17T09:43:08.362Z,48.27
2022-08-17T09:45:42.665Z,48.23
2022-08-17T09:48:25.231Z,47.41
2022-08-17T09:51:12.804Z,47.87
2022-08-17T09:53:40.034Z,47.42
2022-08-17T09:56:13.066Z,47.79
2022-08-17T09:59:07.003Z,47.52
2022-08-17T10:01:42.668Z,47.22
2022-08-17T10:04:43.474Z,46.61
2022-08-17T10:07:19.363Z,46.47
2022-08-17T10:09:56.105Z,46.77
2022-08-17T10:12:32.385Z,46.26
2022-08-17T10:15:25.075Z,46.04
2022-08-17T10:18:24.615Z,45.63
2022-08-17T10:21:23.783Z,45.66
2022-08-17T10:24:26.661Z,44.87
2022-08-17T10:26:56.460Z,44.98
2022-08-17T10:29:49.744Z,44.92
2022-08-17T10:32:35.965Z,44.86
2022-08-17T10:35:39.929Z,44.49
2022-08-17T10:38:24.691Z,44.17
2022-08-17T10:41:04.624Z,44.25
2022-08-17T10:44:39.398Z,43.77
2022-08-17T10:47:11.746Z,43.85
2022-08-17T10:49:49.458Z,43.73
2022-08-17T10:52:28.277Z,43.27
2022-08-17T10:54:58.006Z,42.96
2022-08-17T10:57:34.455Z,43.49
2022-08-17T11:00:10.960Z,42.58
2022-08-17T11:02:47.964Z,42.87
2022-08-17T11:05:43.817Z,42.99
2022-08-17T11:08:29.380Z,43.22
2022-08-17T11:11:08.265Z,42.97
2022-08-17T11:13:53.334Z,42.61
2022-08-17T11:16:20.223Z,43.00
2022-08-17T11:19:05.974Z,42.81
2022-08-17T11:21:58.253Z,42.87
2022-08-17T11:24:47.941Z,42.40
2022-08-17T11:27:33.819Z,42.20
2022-08-17T11:30:02.898Z,41.88
2022-08-17T11:32:38.863Z,41.91
2022-08-17T11:35:20.735Z,41.69
2022-08-17T11:37:50.452Z,41.75
2022-08-17T11:40:33.296Z,41.72
2022-08-17T11:43:13.854Z,41.60
2022-08-17T11:46:10.469Z,41.46
2022-08-17T11:49:18.631Z,41.34
2022-08-17T11:52:11.725Z,41.70
2022-08-17T11:54:48.042Z,41.09
2022-08-17T11:57:26.781Z,40.88
2022-08-17T12:00:07.307Z,40.79
2022-08-17T12:02:38.878Z,40.68
2022-08-17T12:05:22.955Z,40.47
2022-08-17T12:08:01.501Z,39.78
2022-08-17T12:10:34.451Z,39.85
2022-08-17T12:13:07.339Z,39.50
2022-08-17T12:15:41.535Z,38.49
2022-08-17T12:18:09.101Z,38.18
2022-08-17T12:20:42.541Z,37.59
2022-08-17T12:23:23.820Z,37.85
2022-08-17T12:25:59.409Z,37.45
2022-08-17T12:28:29.503Z,37.40
2022-08-17T12:31:44.272Z,37.41
2022-08-17T12:34:26.990Z,37.17
2022-08-17T12:37:02.378Z,36.75
2022-08-17T12:39:30.488Z,36.28
2022-08-17T12:42:02.758Z,36.35
2022-08-17T12:44:35.850Z,35.98
2022-08-17T12:47:22.564Z,35.48
2022-08-17T12:49:52.794Z,35.41
2022-08-17T12:52:19.382Z,35.00
2022-08-17T12:55:05.773Z,34.75
2022-08-17T12:57:37.887Z,34.62
2022-08-17T13:00:34.362Z,34.88
2022-08-17T13:03:08.078Z,35.26
2022-08-17T13:05:44.150Z,34.87
2022-08-17T13:08:20.194Z,34.68
2022-08-17T13:11:13.566Z,34.80
2022-08-17T13:13:42.719Z,34.79
2022-08-17T13:16:12.477Z,34.45
2022-08-17T13:18:45.514Z,34.84
2022-08-17T13:21:22.091Z,34.01
2022-08-17T13:23:59.770Z,34.43
2022-08-17T13:26:45.483Z,33.89
2022-08-17T13:29:27.469Z,33.94
2022-08-17T13:32:04.106Z,33.74
2022-08-17T13:34:49.579Z,33.71
2022-08-17T13:37:25.489Z,34.00
2022-08-17T13:39:55.418Z,34.11
2022-08-17T13:42:52.967Z,34.27
2022-08-17T13:45:34.938Z,34.38
2022-08-17T13:48:13.677Z,33.70
2022-08-17T13:50:42.690Z,33.63
2022-08-17T13:53:29.993Z,33.71
2022-08-17T13:56:05.614Z,33.65
2022-08-17T13:58:39.507Z,33.03
2022-08-17T14:01:28.303Z,33.12
2022-08-17T14:03:56.030Z,33.15
2022-08-17T14:06:51.765Z,32.75
2022-08-17T14:09:11.212Z,32.86
2022-08-17T14:11:38.266Z,32.02
2022-08-17T14:14:05.141Z,31.92
2022-08-17T14:16:32.130Z,32.09
2022-08-17T14:18:58.942Z,32.07
2022-08-17T14:21:25.655Z,31.92
2022-08-17T14:23:54.476Z,31.55
2022-08-17T14:26:21.765Z,31.39
2022-08-17T14:28:56.618Z,31.25
2022-08-17T14:31:25.010Z,31.22
2022-08-17T14:33:52.156Z,31.31
2022-08-17T14:36:18.871Z,31.16
2022-08-17T14:38:45.553Z,30.89
2022-08-17T14:41:12.386Z,31.00
2022-08-17T14:43:39.896Z,31.28
2022-08-17T14:46:06.898Z,31.01
2022-08-17T14:48:35.752Z,30.73
2022-08-17T14:51:04.296Z,30.41
2022-08-17T14:53:31.409Z,30.67
2022-08-17T14:55:58.527Z,30.49
2022-08-17T14:58:26.022Z,30.26
2022-08-17T15:00:53.414Z,30.58
2022-08-17T15:03:20.382Z,30.71
2022-08-17T15:05:48.568Z,30.13
2022-08-17T15:08:16.723Z,30.52
2022-08-17T15:10:44.743Z,30.58
2022-08-17T15:13:22.219Z,30.62
2022-08-17T15:15:49.367Z,30.61
2022-08-17T15:18:16.164Z,30.95
2022-08-17T15:20:44.773Z,31.33
2022-08-17T15:23:15.503Z,31.37
2022-08-17T15:25:43.772Z,31.04
2022-08-17T15:28:10.603Z,31.43
2022-08-17T15:30:37.999Z,30.91
2022-08-17T15:33:04.793Z,31.25
2022-08-17T15:35:33.811Z,31.08
2022-08-17T15:38:09.915Z,31.08
2022-08-17T15:40:41.560Z,30.57
2022-08-17T15:43:27.344Z,31.02
2022-08-17T15:46:14.448Z,30.72
2022-08-17T15:48:42.950Z,31.08
2022-08-17T15:51:22.788Z,31.25
2022-08-17T15:53:56.987Z,31.47
2022-08-17T15:56:25.427Z,31.59
2022-08-17T15:58:53.823Z,31.47
2022-08-17T16:02:14.281Z,31.57
2022-08-17T16:04:30.106Z,32.21
2022-08-17T16:06:56.958Z,32.33
2022-08-17T16:09:23.608Z,32.45
2022-08-17T16:11:53.886Z,32.29
2022-08-17T16:14:23.190Z,32.33
2022-08-17T16:16:50.942Z,32.64
2022-08-17T16:19:17.788Z,32.39
2022-08-17T16:21:44.508Z,32.67
2022-08-17T16:24:13.139Z,33.09
2022-08-17T16:26:42.222Z,33.16
2022-08-17T16:29:09.185Z,32.79
2022-08-17T16:31:37.734Z,33.35
2022-08-17T16:34:17.857Z,33.21
2022-08-17T16:36:55.363Z,33.19
2022-08-17T16:39:29.649Z,33.82
2022-08-17T16:41:57.293Z,33.94
2022-08-17T16:44:25.814Z,34.36
2022-08-17T16:46:53.433Z,34.16
2022-08-17T16:49:31.915Z,34.37
2022-08-17T16:52:04.970Z,34.92
2022-08-17T16:54:35.519Z,35.10
2022-08-17T16:57:05.232Z,35.51
2022-08-17T16:59:40.298Z,35.66
2022-08-17T17:02:12.534Z,36.40
2022-08-17T17:04:50.374Z,36.28
2022-08-17T17:07:28.347Z,36.33
2022-08-17T17:09:55.827Z,36.70
2022-08-17T17:13:00.824Z,36.62
2022-08-17T17:15:10.694Z,36.87
2022-08-17T17:17:39.511Z,37.25
2022-08-17T17:20:16.834Z,37.55
2022-08-17T17:23:11.304Z,37.68
2022-08-17T17:25:48.803Z,37.63
2022-08-17T17:28:27.663Z,38.64
2022-08-17T17:31:04.021Z,39.13
2022-08-17T17:33:37.502Z,39.30
2022-08-17T17:36:15.924Z,39.15
2022-08-17T17:38:49.113Z,39.56
2022-08-17T17:41:26.160Z,39.62
2022-08-17T17:44:07.513Z,40.10
2022-08-17T17:46:42.012Z,40.31
2022-08-17T17:49:14.259Z,40.42
2022-08-17T17:52:13.170Z,40.38
2022-08-17T17:55:09.927Z,40.74
2022-08-17T17:57:52.995Z,41.06
2022-08-17T18:00:33.638Z,41.32
2022-08-17T18:03:00.326Z,41.24
2022-08-17T18:05:49.029Z,41.64
2022-08-17T18:08:32.427Z,41.47
2022-08-17T18:11:33.076Z,41.95
2022-08-17T18:14:25.284Z,42.29
2022-08-17T18:16:55.904Z,42.50
2022-08-17T18:19:25.603Z,42.48
2022-08-17T18:21:56.552Z,42.43
2022-08-17T18:24:37.909Z,42.91
2022-08-17T18:27:17.437Z,42.98
2022-08-17T18:29:45.322Z,43.15
2022-08-17T18:32:15.827Z,42.88
2022-08-17T18:34:47.613Z,43.26
2022-08-17T18:37:31.281Z,43.41
2022-08-17T18:39:58.085Z,43.35
2022-08-17T18:42:26.985Z,43.52
2022-08-17T18:44:55.457Z,43.23
2022-08-17T18:47:25.527Z,43.36
2022-08-17T18:50:18.979Z,43.74
2022-08-17T18:52:48.402Z,43.82
2022-08-17T18:55:20.838Z,44.00
2022-08-17T18:57:55.544Z,44.15
2022-08-17T19:00:41.496Z,43.95
2022-08-17T19:03:21.738Z,44.38
2022-08-17T19:05:57.055Z,44.56
2022-08-17T19:08:30.025Z,44.28
2022-08-17T19:11:09.802Z,44.52
2022-08-17T19:13:57.482Z,44.71
2022-08-17T19:16:34.907Z,44.49
2022-08-17T19:19:23.906Z,44.94
2022-08-17T19:21:56.144Z,45.02
2022-08-17T19:24:27.859Z,44.96
2022-08-17T19:27:23.796Z,45.04
2022-08-17T19:30:05.529Z,44.95
2022-08-17T19:32:35.775Z,44.68
2022-08-17T19:35:03.962Z,44.98
2022-08-17T19:37:39.169Z,45.23
2022-08-17T19:40:35.091Z,44.99
2022-08-17T19:43:23.840Z,45.09
2022-08-17T19:46:26.206Z,45.61
2022-08-17T19:49:10.523Z,45.14
2022-08-17T19:51:50.820Z,45.83
2022-08-17T19:54:41.794Z,45.58
2022-08-17T19:57:37.375Z,45.89
2022-08-17T20:00:12.244Z,45.90
2022-08-17T20:02:58.998Z,45.66
2022-08-17T20:05:27.702Z,45.77
2022-08-17T20:08:09.210Z,46.10
2022-08-17T20:10:58.797Z,46.06
2022-08-17T20:13:49.216Z,46.37
2022-08-17T20:16:17.609Z,46.11
2022-08-17T20:18:59.951Z,46.69
2022-08-17T20:21:34.982Z,46.38
2022-08-17T20:24:36.998Z,46.79
2022-08-17T20:27:12.686Z,46.72
2022-08-17T20:30:06.837Z,46.93
2022-08-17T20:32:36.867Z,46.37
2022-08-17T20:35:25.984Z,46.92
2022-08-17T20:38:36.204Z,46.97
2022-08-17T20:41:04.593Z,46.57
2022-08-17T20:43:34.177Z,46.78
2022-08-17T20:46:03.666Z,47.06
2022-08-17T20:48:41.386Z,46.92
2022-08-17T20:51:20.263Z,47.11
2022-08-17T20:53:47.191Z,46.83
2022-08-17T20:56:43.410Z,47.29
2022-08-17T20:59:26.034Z,47.26
2022-08-17T21:02:18.359Z,46.81
2022-08-17T21:05:02.533Z,47.33
2022-08-17T21:07:42.932Z,46.92
2022-08-17T21:10:13.251Z,47.02
2022-08-17T21:12:48.168Z,46.98
2022-08-17T21:15:42.351Z,47.34
2022-08-17T21:18:23.383Z,47.51
2022-08-17T21:21:16.877Z,47.32
2022-08-17T21:23:49.911Z,47.29
2022-08-17T21:26:20.762Z,47.21
2022-08-17T21:29:29.775Z,47.22
2022-08-17T21:32:03.612Z,47.33
2022-08-17T21:34:37.098Z,47.00
2022-08-17T21:37:22.339Z,46.95
2022-08-17T21:39:58.475Z,46.75
2022-08-17T21:42:29.827Z,46.98
2022-08-17T21:45:01.664Z,46.87
2022-08-17T21:47:38.347Z,47.44
2022-08-17T21:50:27.611Z,48.06
2022-08-17T21:52:58.722Z,48.45
2022-08-17T21:55:30.699Z,48.41
2022-08-17T21:58:14.195Z,49.10
2022-08-17T22:00:44.490Z,49.46
2022-08-17T22:03:23.741Z,49.47
2022-08-17T22:05:51.573Z,49.93
2022-08-17T22:08:25.632Z,50.10
2022-08-17T22:11:01.252Z,50.42
2022-08-17T22:13:29.742Z,50.29
2022-08-17T22:16:15.653Z,50.75
2022-08-17T22:18:55.747Z,51.06
2022-08-17T22:21:24.603Z,51.11
2022-08-17T22:24:05.134Z,51.02
2022-08-17T22:26:59.486Z,51.21
2022-08-17T22:29:54.307Z,51.70
2022-08-17T22:32:43.011Z,51.73
2022-08-17T22:35:41.743Z,51.94
2022-08-17T22:38:20.702Z,52.11
2022-08-17T22:40:52.038Z,52.16
2022-08-17T22:43:26.019Z,52.07
2022-08-17T22:45:55.456Z,52.61
2022-08-17T22:48:27.200Z,52.61
2022-08-17T22:51:12.734Z,52.65
2022-08-17T22:54:32.858Z,52.80
2022-08-17T22:57:20.744Z,53.08
2022-08-17T22:59:53.579Z,53.50
2022-08-17T23:02:29.640Z,53.48
2022-08-17T23:05:17.533Z,54.32
2022-08-17T23:07:46.666Z,54.02
2022-08-17T23:10:13.995Z,54.50
2022-08-17T23:12:40.850Z,54.40
2022-08-17T23:15:16.059Z,54.51
2022-08-17T23:17:42.841Z,54.49
2022-08-17T23:20:14.014Z,54.01
2022-08-17T23:22:52.312Z,54.15
2022-08-17T23:25:33.663Z,54.59
2022-08-17T23:28:02.158Z,54.28
2022-08-17T23:30:31.232Z,54.72
2022-08-17T23:33:03.865Z,54.55
2022-08-17T23:35:39.904Z,54.24
2022-08-17T23:38:11.850Z,54.34
2022-08-17T23:40:39.509Z,54.87
2022-08-17T23:43:23.479Z,54.57
2022-08-17T23:45:54.020Z,54.75
2022-08-17T23:48:32.573Z,54.97
2022-08-17T23:51:05.935Z,54.88
2022-08-17T23:53:34.737Z,54.79
2022-08-17T23:56:06.911Z,54.73
2022-08-17T23:58:42.237Z,54.75
